Time;durP1;ratioP1;P1;durP2;ratioP2;P2;SDS_P1;SDS_P2;PMS_P1;PMS_P2;Temp;Humidity;BMP_temperature;BMP_pressure;BME280_temperature;BME280_humidity;BME280_pressure;Samples;Min_cycle;Max_cycle;Signal;HPM_P1;HPM_P2
2022/03/21 00:00:38;;;;;;;14.20;10.90;;;10.80;90.60;;;;;;5075671;28;20457;-63
2022/03/21 00:03:07;;;;;;;15.97;11.77;;;10.80;90.90;;;;;;5075704;28;20495;-63
2022/03/21 00:05:34;;;;;;;16.67;11.00;;;10.80;91.10;;;;;;5075352;28;20506;-63
2022/03/21 00:08:02;;;;;;;16.13;10.57;;;10.80;91.10;;;;;;5075580;28;20445;-63
2022/03/21 00:10:30;;;;;;;20.13;11.40;;;10.80;91.10;;;;;;5075424;28;20881;-63
2022/03/21 00:12:57;;;;;;;15.80;11.43;;;10.80;91.40;;;;;;5075712;28;20445;-64
2022/03/21 00:15:24;;;;;;;17.60;10.50;;;10.80;91.40;;;;;;5075506;28;20831;-64
2022/03/21 00:17:51;;;;;;;18.93;12.67;;;10.80;91.60;;;;;;5075249;28;20448;-63
2022/03/21 00:20:19;;;;;;;15.40;10.70;;;10.80;91.60;;;;;;5075070;28;20969;-63
2022/03/21 00:22:46;;;;;;;17.40;11.60;;;10.80;91.70;;;;;;5075065;28;20491;-64
2022/03/21 00:25:13;;;;;;;15.47;10.73;;;10.80;91.60;;;;;;5075419;28;20821;-63
2022/03/21 00:27:40;;;;;;;19.40;11.40;;;10.70;91.50;;;;;;5075307;28;20448;-63
2022/03/21 00:30:09;;;;;;;14.97;10.73;;;10.70;91.60;;;;;;5075309;28;20506;-63
2022/03/21 00:32:36;;;;;;;16.07;11.03;;;10.80;91.40;;;;;;5074750;28;21040;-63
2022/03/21 00:35:04;;;;;;;21.30;11.30;;;10.70;91.00;;;;;;5075103;28;20433;-62
2022/03/21 00:37:33;;;;;;;24.73;12.40;;;10.70;91.10;;;;;;5074746;28;20931;-62
2022/03/21 00:39:59;;;;;;;13.57;9.67;;;10.70;91.30;;;;;;5074790;28;20480;-63
2022/03/21 00:42:27;;;;;;;16.90;11.57;;;10.70;91.50;;;;;;5074788;28;20489;-63
2022/03/21 00:44:56;;;;;;;15.20;11.87;;;10.70;91.60;;;;;;5075206;28;20817;-64
2022/03/21 00:47:23;;;;;;;15.60;11.37;;;10.70;91.60;;;;;;5074813;28;20449;-63
2022/03/21 00:49:52;;;;;;;17.50;12.90;;;10.70;91.80;;;;;;5074621;28;20506;-64
2022/03/21 00:52:19;;;;;;;15.90;12.63;;;10.70;91.80;;;;;;5074667;28;20824;-64
2022/03/21 00:54:47;;;;;;;19.03;12.37;;;10.70;91.90;;;;;;5074610;28;20460;-64
2022/03/21 00:57:13;;;;;;;17.20;11.37;;;10.60;92.00;;;;;;5074597;28;20468;-63
2022/03/21 00:59:40;;;;;;;14.87;10.60;;;10.60;92.20;;;;;;5074511;28;20449;-63
2022/03/21 01:02:08;;;;;;;14.53;10.97;;;10.60;92.30;;;;;;5074363;28;20485;-63
2022/03/21 01:04:35;;;;;;;19.13;11.90;;;10.60;92.50;;;;;;5074113;28;20537;-63
2022/03/21 01:07:02;;;;;;;13.77;11.53;;;10.60;92.70;;;;;;5074624;28;20449;-63
2022/03/21 01:09:29;;;;;;;17.40;12.57;;;10.60;93.00;;;;;;5074328;28;20452;-63
2022/03/21 01:11:57;;;;;;;15.63;11.50;;;10.60;93.10;;;;;;5074281;28;20463;-64
2022/03/21 01:14:23;;;;;;;18.40;10.97;;;10.60;93.20;;;;;;5074305;28;20440;-63
2022/03/21 01:16:54;;;;;;;14.10;10.63;;;10.60;93.20;;;;;;5074354;28;20441;-63
2022/03/21 01:19:20;;;;;;;17.90;11.73;;;10.50;93.40;;;;;;5073839;28;20967;-63
2022/03/21 01:21:47;;;;;;;17.53;12.20;;;10.60;93.30;;;;;;5074128;28;20495;-64
2022/03/21 01:24:14;;;;;;;18.23;10.77;;;10.50;93.30;;;;;;5073888;28;20432;-63
2022/03/21 01:26:40;;;;;;;14.77;10.63;;;10.50;93.40;;;;;;5073964;28;20452;-63
2022/03/21 01:29:08;;;;;;;17.73;12.97;;;10.60;93.20;;;;;;5074181;28;20471;-64
2022/03/21 01:31:35;;;;;;;17.03;11.13;;;10.60;93.30;;;;;;5073672;28;20472;-64
2022/03/21 01:34:02;;;;;;;15.97;12.30;;;10.50;93.40;;;;;;5074051;28;20452;-63
2022/03/21 01:36:29;;;;;;;11.90;9.80;;;10.50;93.40;;;;;;5074030;28;20453;-63
2022/03/21 01:38:56;;;;;;;17.43;11.30;;;10.50;93.60;;;;;;5073694;28;20943;-63
2022/03/21 01:41:22;;;;;;;14.10;10.80;;;10.50;93.70;;;;;;5073699;28;20469;-64
2022/03/21 01:43:56;;;;;;;12.97;10.23;;;10.50;93.80;;;;;;5074041;28;20903;-64
2022/03/21 01:46:25;;;;;;;16.80;11.73;;;10.50;93.90;;;;;;5073814;28;20451;-64
2022/03/21 01:48:52;;;;;;;13.50;11.20;;;10.50;93.90;;;;;;5074123;28;20478;-63
2022/03/21 01:51:18;;;;;;;16.37;10.97;;;10.50;94.00;;;;;;5073563;28;20837;-63
2022/03/21 01:56:30;;;;;;;17.23;11.90;;;10.40;94.10;;;;;;5074061;28;20470;-63
2022/03/21 01:58:57;;;;;;;14.03;11.10;;;10.40;93.90;;;;;;5073879;28;20452;-63
2022/03/21 02:01:25;;;;;;;15.07;11.37;;;10.40;93.90;;;;;;5073913;28;20816;-64
2022/03/21 02:03:52;;;;;;;17.57;12.57;;;10.40;94.10;;;;;;5073801;28;20444;-63
2022/03/21 02:06:21;;;;;;;16.93;11.30;;;10.40;94.10;;;;;;5073774;28;20440;-64
2022/03/21 02:08:48;;;;;;;13.73;11.13;;;10.40;94.30;;;;;;5073291;28;20444;-64
2022/03/21 02:11:16;;;;;;;15.50;12.53;;;10.40;94.30;;;;;;5073550;28;20469;-63
2022/03/21 02:13:43;;;;;;;13.83;10.60;;;10.40;94.40;;;;;;5073642;28;20449;-63
2022/03/21 02:16:10;;;;;;;13.53;10.17;;;10.40;94.40;;;;;;5073340;28;20938;-63
2022/03/21 02:18:41;;;;;;;12.67;10.10;;;10.40;94.40;;;;;;5073235;28;20464;-63
2022/03/21 02:21:14;;;;;;;13.23;11.33;;;10.40;94.50;;;;;;5073452;28;20464;-64
2022/03/21 02:23:47;;;;;;;18.80;11.53;;;10.40;94.40;;;;;;5073803;28;20547;-64
2022/03/21 02:26:16;;;;;;;12.77;10.90;;;10.40;94.30;;;;;;5073672;28;20436;-63
2022/03/21 02:28:45;;;;;;;14.17;11.70;;;10.30;94.30;;;;;;5073561;28;20824;-64
2022/03/21 02:31:12;;;;;;;12.93;11.00;;;10.30;94.20;;;;;;5073608;28;20977;-63
2022/03/21 02:33:40;;;;;;;11.90;10.33;;;10.30;94.10;;;;;;5073236;28;20885;-63
2022/03/21 02:36:08;;;;;;;13.63;10.63;;;10.30;94.00;;;;;;5073276;28;20991;-64
2022/03/21 02:38:36;;;;;;;13.70;10.40;;;10.20;93.90;;;;;;5073933;28;20803;-64
2022/03/21 02:41:02;;;;;;;16.50;12.17;;;10.20;93.90;;;;;;5074133;28;20495;-63
2022/03/21 02:43:31;;;;;;;14.23;10.63;;;10.20;93.90;;;;;;5074222;28;20484;-63
2022/03/21 02:46:05;;;;;;;14.13;11.20;;;10.20;94.00;;;;;;5075297;28;20460;-64
2022/03/21 02:48:32;;;;;;;11.30;10.10;;;10.10;93.90;;;;;;5074812;28;20456;-63
2022/03/21 02:51:02;;;;;;;16.73;10.50;;;10.10;94.00;;;;;;5074150;28;20473;-64
2022/03/21 02:53:30;;;;;;;10.93;9.50;;;10.00;94.10;;;;;;5073609;28;20444;-62
2022/03/21 02:55:57;;;;;;;13.40;11.20;;;10.00;94.20;;;;;;5072866;28;20448;-62
2022/03/21 02:58:25;;;;;;;12.40;11.10;;;10.00;94.30;;;;;;5072944;28;20911;-63
2022/03/21 03:00:53;;;;;;;13.93;10.10;;;10.00;94.30;;;;;;5072744;28;20461;-63
2022/03/21 03:03:20;;;;;;;17.93;10.83;;;10.00;94.30;;;;;;5072785;28;20520;-63
2022/03/21 03:05:46;;;;;;;14.80;10.90;;;9.90;94.90;;;;;;5072873;28;20448;-63
2022/03/21 03:08:13;;;;;;;12.93;10.07;;;9.90;94.90;;;;;;5072905;28;20455;-63
2022/03/21 03:10:40;;;;;;;11.73;9.33;;;9.90;94.90;;;;;;5072569;28;20457;-63
2022/03/21 03:13:07;;;;;;;12.10;10.23;;;9.80;94.70;;;;;;5072865;28;20452;-63
2022/03/21 03:15:34;;;;;;;10.60;9.50;;;9.80;94.60;;;;;;5072972;28;20457;-63
2022/03/21 03:18:02;;;;;;;10.90;9.80;;;9.70;94.40;;;;;;5072626;28;20448;-63
2022/03/21 03:20:29;;;;;;;11.10;9.13;;;9.70;94.30;;;;;;5073107;28;20433;-62
2022/03/21 03:22:57;;;;;;;11.17;8.47;;;9.70;94.20;;;;;;5072872;28;20480;-62
2022/03/21 03:25:24;;;;;;;13.63;9.20;;;9.70;94.20;;;;;;5072641;28;20820;-63
2022/03/21 03:27:50;;;;;;;11.33;10.13;;;9.70;94.20;;;;;;5076600;28;20440;-64
2022/03/21 03:30:17;;;;;;;11.57;9.20;;;9.60;94.10;;;;;;5076484;28;20440;-63
2022/03/21 03:32:45;;;;;;;11.43;8.83;;;9.60;94.00;;;;;;5076412;28;20471;-63
2022/03/21 03:35:13;;;;;;;12.00;8.93;;;9.50;94.00;;;;;;5076317;28;20841;-63
2022/03/21 03:37:40;;;;;;;14.10;9.20;;;9.50;93.90;;;;;;5075905;28;20855;-63
2022/03/21 03:40:08;;;;;;;10.20;8.90;;;9.50;93.90;;;;;;5076095;28;20472;-63
2022/03/21 03:42:35;;;;;;;9.23;7.73;;;9.40;94.00;;;;;;5075998;28;20638;-64
2022/03/21 03:45:02;;;;;;;11.07;9.40;;;9.50;94.00;;;;;;5075892;28;20943;-63
2022/03/21 03:47:28;;;;;;;11.90;9.63;;;9.50;94.00;;;;;;5075937;28;20449;-63
2022/03/21 03:49:58;;;;;;;12.63;9.50;;;9.50;94.30;;;;;;5076025;28;20448;-63
2022/03/21 03:52:26;;;;;;;12.20;9.37;;;9.50;94.60;;;;;;5075961;28;20563;-63
2022/03/21 03:54:53;;;;;;;12.03;9.70;;;9.50;94.70;;;;;;5076099;28;20447;-64
2022/03/21 03:57:21;;;;;;;11.30;9.10;;;9.40;94.70;;;;;;5075840;28;20444;-64
2022/03/21 03:59:47;;;;;;;10.80;9.33;;;9.40;94.70;;;;;;5075556;28;20455;-63
2022/03/21 04:02:14;;;;;;;13.17;9.90;;;9.30;94.70;;;;;;5075746;28;20465;-63
2022/03/21 04:04:41;;;;;;;14.10;10.40;;;9.30;94.90;;;;;;5075450;28;20440;-63
2022/03/21 04:07:08;;;;;;;12.73;10.30;;;9.20;95.10;;;;;;5075424;28;20954;-63
2022/03/21 04:09:36;;;;;;;16.60;10.70;;;9.20;95.30;;;;;;5075357;28;20448;-63
2022/03/21 04:12:03;;;;;;;13.27;10.63;;;9.30;95.60;;;;;;5075465;28;20465;-64
2022/03/21 04:14:30;;;;;;;12.57;9.87;;;9.30;95.80;;;;;;5075262;28;20456;-63
2022/03/21 04:16:57;;;;;;;11.53;10.40;;;9.30;95.90;;;;;;5075495;28;20453;-63
2022/03/21 04:19:23;;;;;;;17.80;11.27;;;9.30;95.90;;;;;;5075305;28;20835;-63
2022/03/21 04:21:51;;;;;;;15.23;11.37;;;9.30;95.70;;;;;;5075287;28;20475;-64
2022/03/21 04:24:17;;;;;;;12.50;10.40;;;9.30;95.40;;;;;;5075293;28;20929;-63
2022/03/21 04:26:45;;;;;;;11.00;9.90;;;9.20;95.30;;;;;;5075314;28;20452;-63
2022/03/21 04:29:13;;;;;;;11.73;10.27;;;9.20;95.30;;;;;;5075196;28;20820;-64
2022/03/21 04:31:39;;;;;;;11.43;9.67;;;9.20;95.20;;;;;;5075148;28;20525;-63
2022/03/21 04:34:06;;;;;;;12.23;10.93;;;9.10;95.10;;;;;;5075169;28;20490;-63
2022/03/21 04:36:33;;;;;;;11.73;10.07;;;9.10;95.10;;;;;;5074869;28;20452;-63
2022/03/21 04:38:59;;;;;;;13.57;10.13;;;9.10;95.10;;;;;;5075203;28;20448;-64
2022/03/21 04:41:26;;;;;;;12.80;10.70;;;9.10;94.90;;;;;;5075261;28;20476;-64
2022/03/21 04:43:54;;;;;;;14.07;11.10;;;9.10;94.90;;;;;;5074902;28;20494;-63
2022/03/21 04:46:21;;;;;;;12.73;11.07;;;9.10;94.90;;;;;;5074919;28;20444;-64
2022/03/21 04:48:47;;;;;;;13.53;11.20;;;9.10;94.80;;;;;;5074921;28;20444;-64
2022/03/21 04:51:14;;;;;;;15.47;11.47;;;9.10;94.60;;;;;;5074814;28;20555;-63
2022/03/21 04:53:41;;;;;;;14.67;10.53;;;9.00;94.40;;;;;;5074673;28;20446;-63
2022/03/21 04:56:08;;;;;;;11.80;9.80;;;9.00;94.40;;;;;;5074617;28;20448;-63
2022/03/21 04:58:35;;;;;;;15.97;11.50;;;9.00;94.30;;;;;;5074850;28;20944;-63
2022/03/21 05:01:03;;;;;;;11.40;10.20;;;9.00;94.20;;;;;;5074551;28;20472;-63
2022/03/21 05:03:32;;;;;;;11.70;10.50;;;9.00;94.10;;;;;;5074241;28;20481;-63
2022/03/21 05:05:58;;;;;;;11.50;10.17;;;8.90;93.90;;;;;;5074787;28;20510;-63
2022/03/21 05:08:25;;;;;;;10.80;9.40;;;8.90;93.80;;;;;;5074677;28;20455;-63
2022/03/21 05:10:52;;;;;;;12.40;9.80;;;8.80;93.70;;;;;;5074567;28;20469;-63
2022/03/21 05:13:19;;;;;;;11.27;9.80;;;8.80;93.60;;;;;;5074365;28;20938;-63
2022/03/21 05:15:45;;;;;;;9.83;8.77;;;8.80;93.40;;;;;;5074349;28;20448;-63
2022/03/21 05:18:14;;;;;;;11.13;10.00;;;8.80;93.30;;;;;;5074001;28;20989;-63
2022/03/21 05:20:40;;;;;;;13.07;9.57;;;8.70;93.20;;;;;;5074222;28;20468;-64
2022/03/21 05:31:24;;;;;;;12.40;10.50;;;8.60;93.20;;;;;;5035258;28;20532;-63
2022/03/21 05:36:52;;;;;;;9.87;8.87;;;8.60;93.10;;;;;;5031911;28;20431;-64
2022/03/21 05:39:19;;;;;;;9.53;8.07;;;8.50;92.90;;;;;;5031859;28;20493;-63
2022/03/21 05:41:46;;;;;;;8.53;7.70;;;8.40;92.70;;;;;;5050178;28;20461;-64
2022/03/21 05:44:13;;;;;;;9.60;8.40;;;8.40;92.50;;;;;;5073496;28;20991;-63
2022/03/21 05:46:39;;;;;;;9.80;8.83;;;8.30;92.40;;;;;;5073894;28;20432;-63
2022/03/21 05:49:06;;;;;;;10.87;8.97;;;8.30;92.40;;;;;;5073412;28;20951;-63
2022/03/21 05:51:35;;;;;;;10.20;7.90;;;8.30;92.40;;;;;;5073919;28;20949;-64
2022/03/21 05:54:05;;;;;;;10.03;9.03;;;8.30;92.60;;;;;;5073784;28;20452;-63
2022/03/21 05:56:33;;;;;;;9.80;8.83;;;8.30;92.70;;;;;;5073838;28;20451;-64
2022/03/21 06:00:20;;;;;;;9.60;8.50;;;8.30;92.70;;;;;;5073755;28;20455;-64
2022/03/21 06:01:47;;;;;;;11.30;8.80;;;8.30;92.80;;;;;;5073715;28;20469;-64
2022/03/21 06:04:15;;;;;;;9.80;8.57;;;8.20;92.60;;;;;;5073538;28;20541;-63
2022/03/21 06:06:42;;;;;;;10.00;9.00;;;8.20;92.50;;;;;;5073684;28;20494;-63
2022/03/21 06:09:09;;;;;;;11.23;9.10;;;8.20;92.50;;;;;;5073679;28;20979;-63
2022/03/21 06:11:36;;;;;;;10.27;9.27;;;8.10;92.40;;;;;;5072992;28;20472;-64
2022/03/21 06:14:04;;;;;;;11.17;9.10;;;8.10;92.30;;;;;;5073776;28;20472;-63
2022/03/21 06:16:31;;;;;;;11.37;8.00;;;8.10;92.20;;;;;;5073053;28;20543;-63
2022/03/21 06:18:59;;;;;;;11.10;9.20;;;8.10;92.30;;;;;;5073160;28;20472;-63
2022/03/21 06:21:29;;;;;;;15.27;9.70;;;8.10;92.50;;;;;;5073037;28;20550;-63
2022/03/21 06:23:55;;;;;;;16.73;9.83;;;8.10;92.50;;;;;;5073133;28;20538;-63
2022/03/21 06:26:22;;;;;;;11.17;9.97;;;8.10;92.60;;;;;;5073208;28;20452;-63
2022/03/21 06:28:50;;;;;;;12.30;9.27;;;8.10;92.50;;;;;;5073218;28;20450;-64
2022/03/21 06:31:17;;;;;;;13.73;10.40;;;8.10;92.60;;;;;;5073151;28;20476;-63
2022/03/21 06:33:43;;;;;;;13.80;11.07;;;8.10;92.80;;;;;;5074608;28;20468;-63
2022/03/21 06:36:11;;;;;;;12.37;9.00;;;8.10;92.90;;;;;;5073241;28;20462;-63
2022/03/21 06:38:40;;;;;;;13.70;9.87;;;8.20;93.00;;;;;;5073255;28;20456;-63
2022/03/21 06:41:07;;;;;;;12.70;10.00;;;8.20;93.10;;;;;;5073253;28;20555;-63
2022/03/21 06:43:34;;;;;;;11.73;10.53;;;8.20;93.10;;;;;;5073057;28;20537;-63
2022/03/21 06:46:00;;;;;;;13.80;12.40;;;8.30;93.20;;;;;;5073183;28;20455;-63
2022/03/21 06:48:28;;;;;;;16.10;11.57;;;8.30;93.40;;;;;;5072857;28;20929;-64
2022/03/21 06:50:55;;;;;;;13.50;9.83;;;8.30;93.50;;;;;;5073106;28;20507;-64
2022/03/21 06:53:23;;;;;;;11.47;10.37;;;8.40;93.70;;;;;;5073081;28;20448;-64
2022/03/21 06:55:51;;;;;;;12.40;10.80;;;8.50;93.90;;;;;;5072969;28;20825;-64
2022/03/21 06:58:18;;;;;;;12.00;10.80;;;8.50;93.90;;;;;;5073160;28;20452;-64
2022/03/21 07:00:46;;;;;;;17.80;12.83;;;8.50;94.10;;;;;;5073387;28;20464;-63
2022/03/21 07:03:16;;;;;;;15.80;12.77;;;8.60;94.30;;;;;;5076469;28;20484;-63
2022/03/21 07:05:43;;;;;;;13.43;11.67;;;8.60;94.50;;;;;;5076421;28;20843;-63
2022/03/21 07:08:10;;;;;;;13.00;11.10;;;8.70;94.90;;;;;;5076718;28;20452;-63
2022/03/21 07:10:40;;;;;;;14.13;12.43;;;8.80;95.20;;;;;;5076690;28;20472;-63
2022/03/21 07:13:08;;;;;;;14.47;12.00;;;8.80;95.30;;;;;;5076638;28;20480;-64
2022/03/21 07:15:35;;;;;;;20.77;13.23;;;8.90;95.50;;;;;;5076828;28;20437;-63
2022/03/21 07:18:02;;;;;;;17.20;13.20;;;9.00;95.70;;;;;;5076420;28;20452;-63
2022/03/21 07:20:28;;;;;;;13.13;11.77;;;9.10;95.80;;;;;;5076980;28;20436;-64
2022/03/21 07:22:56;;;;;;;17.70;13.10;;;9.10;95.60;;;;;;5076610;28;20448;-63
2022/03/21 07:25:24;;;;;;;11.90;9.77;;;9.20;95.40;;;;;;5076684;28;20480;-63
2022/03/21 07:27:51;;;;;;;16.20;13.10;;;9.30;95.20;;;;;;5076465;28;20485;-63
2022/03/21 07:30:20;;;;;;;14.80;12.17;;;9.40;95.20;;;;;;5076245;28;20456;-64
2022/03/21 07:32:47;;;;;;;19.00;16.50;;;9.50;95.30;;;;;;5076075;28;20997;-64
2022/03/21 07:35:14;;;;;;;25.37;16.40;;;9.60;95.00;;;;;;5075973;28;20451;-63
2022/03/21 07:37:41;;;;;;;19.17;15.10;;;9.70;94.90;;;;;;5076258;28;20448;-63
2022/03/21 07:40:11;;;;;;;24.47;15.57;;;9.80;95.00;;;;;;5076186;28;20448;-63
2022/03/21 07:42:38;;;;;;;19.57;16.27;;;9.90;94.60;;;;;;5076318;28;20492;-63
2022/03/21 07:47:51;;;;;;;22.23;15.20;;;10.20;93.60;;;;;;5076226;28;20405;-63
2022/03/21 07:50:19;;;;;;;20.60;16.20;;;10.30;93.10;;;;;;5076067;28;20487;-63
2022/03/21 07:52:45;;;;;;;19.73;14.93;;;10.40;92.30;;;;;;5076375;28;20506;-63
2022/03/21 07:55:12;;;;;;;20.73;17.33;;;10.60;91.70;;;;;;5075910;28;20453;-64
2022/03/21 07:57:40;;;;;;;22.13;19.07;;;10.70;91.50;;;;;;5076095;28;20449;-63
2022/03/21 08:00:09;;;;;;;24.27;17.60;;;10.80;91.50;;;;;;5075900;28;20452;-64
2022/03/21 08:02:36;;;;;;;22.37;18.90;;;11.00;91.90;;;;;;5075678;28;20472;-64
2022/03/21 08:05:05;;;;;;;24.10;17.13;;;11.10;91.30;;;;;;5075721;28;20507;-64
2022/03/21 08:07:32;;;;;;;26.03;21.97;;;11.30;90.70;;;;;;5075689;28;20519;-65
2022/03/21 08:09:59;;;;;;;28.10;22.13;;;11.40;90.80;;;;;;5075845;28;20456;-65
2022/03/21 08:12:26;;;;;;;26.03;22.67;;;11.50;90.80;;;;;;5075096;28;20473;-65
2022/03/21 08:14:53;;;;;;;26.17;22.93;;;11.70;90.60;;;;;;5075497;28;20441;-64
2022/03/21 08:17:19;;;;;;;26.20;21.40;;;11.80;90.40;;;;;;5075406;28;20441;-65
2022/03/21 08:19:46;;;;;;;26.90;22.90;;;12.00;90.10;;;;;;5075325;28;20472;-65
2022/03/21 08:22:15;;;;;;;26.33;21.90;;;12.10;89.60;;;;;;5075393;28;20475;-64
2022/03/21 08:24:42;;;;;;;30.47;24.40;;;12.30;88.80;;;;;;5075422;28;20481;-64
2022/03/21 08:27:09;;;;;;;27.73;23.20;;;12.40;87.40;;;;;;5075367;28;20449;-64
2022/03/21 08:29:35;;;;;;;26.80;21.20;;;12.50;87.10;;;;;;5075287;28;21019;-64
2022/03/21 08:32:02;;;;;;;23.90;21.50;;;12.70;87.30;;;;;;5075317;28;20488;-64
2022/03/21 08:34:29;;;;;;;26.47;22.27;;;12.80;85.40;;;;;;5074926;28;20931;-64
2022/03/21 08:36:56;;;;;;;27.20;23.07;;;13.00;84.90;;;;;;5075281;28;20476;-65
2022/03/21 08:39:24;;;;;;;24.60;21.37;;;13.10;83.80;;;;;;5075038;28;20441;-65
2022/03/21 08:41:52;;;;;;;27.50;21.10;;;13.20;82.80;;;;;;5074979;28;20471;-64
2022/03/21 08:44:20;;;;;;;25.87;22.50;;;13.30;81.70;;;;;;5074579;28;20590;-64
2022/03/21 08:46:47;;;;;;;25.80;22.60;;;13.40;80.80;;;;;;5074958;28;20448;-64
2022/03/21 08:49:26;;;;;;;26.43;22.87;;;13.50;80.90;;;;;;5074770;28;20807;-64
2022/03/21 08:51:54;;;;;;;28.80;24.43;;;13.60;80.90;;;;;;5074878;28;20477;-65
2022/03/21 08:54:20;;;;;;;25.60;22.70;;;13.70;80.60;;;;;;5074817;28;20433;-64
2022/03/21 08:56:49;;;;;;;26.70;21.33;;;13.80;79.10;;;;;;5074923;28;20452;-64
2022/03/21 08:59:15;;;;;;;26.33;21.73;;;13.90;78.30;;;;;;5074490;28;20449;-64
2022/03/21 09:01:42;;;;;;;25.63;22.80;;;14.00;77.60;;;;;;5075191;28;20475;-65
2022/03/21 09:04:10;;;;;;;29.17;24.50;;;14.10;77.50;;;;;;5074772;28;20508;-64
2022/03/21 09:06:37;;;;;;;28.17;23.27;;;14.20;77.40;;;;;;5074850;28;20453;-64
2022/03/21 09:09:04;;;;;;;30.03;24.07;;;14.20;76.90;;;;;;5074823;28;20503;-65
2022/03/21 09:11:31;;;;;;;29.60;24.80;;;14.40;76.70;;;;;;5074519;28;21005;-65
2022/03/21 09:13:59;;;;;;;29.57;24.70;;;14.40;76.80;;;;;;5075097;28;20441;-65
2022/03/21 09:16:26;;;;;;;28.00;24.97;;;14.60;76.70;;;;;;5075137;28;20460;-64
2022/03/21 09:18:52;;;;;;;29.07;23.00;;;14.70;76.30;;;;;;5075433;28;20457;-65
2022/03/21 09:21:19;;;;;;;28.73;25.20;;;14.90;75.30;;;;;;5075764;28;20523;-65
2022/03/21 09:23:46;;;;;;;29.07;25.80;;;15.00;74.70;;;;;;5075443;28;20843;-65
2022/03/21 09:26:13;;;;;;;27.43;24.43;;;15.10;74.40;;;;;;5078098;28;20441;-64
2022/03/21 09:28:41;;;;;;;29.97;25.40;;;15.30;74.30;;;;;;5074774;28;20439;-63
2022/03/21 09:31:09;;;;;;;26.33;23.53;;;15.40;74.20;;;;;;5074182;28;20510;-65
2022/03/21 09:33:39;;;;;;;27.53;24.03;;;15.60;73.70;;;;;;5074069;28;20468;-65
2022/03/21 09:36:05;;;;;;;26.00;23.20;;;15.70;72.80;;;;;;5073967;28;20548;-65
2022/03/21 09:38:32;;;;;;;30.83;24.87;;;15.90;72.10;;;;;;5073901;28;20448;-64
2022/03/21 09:40:59;;;;;;;28.13;24.07;;;16.00;71.20;;;;;;5073665;28;20842;-65
2022/03/21 09:43:27;;;;;;;27.07;22.87;;;16.30;70.90;;;;;;5073652;28;20931;-65
2022/03/21 09:45:57;;;;;;;26.77;23.97;;;16.40;69.70;;;;;;5074118;28;20487;-65
2022/03/21 09:48:28;;;;;;;32.90;22.73;;;16.70;69.00;;;;;;5073538;28;20963;-65
2022/03/21 09:50:56;;;;;;;28.43;23.83;;;16.90;67.10;;;;;;5073860;28;20503;-65
2022/03/21 09:53:24;;;;;;;27.83;24.93;;;17.10;67.10;;;;;;5073872;28;20459;-65
2022/03/21 09:55:51;;;;;;;29.97;23.80;;;17.40;65.70;;;;;;5073774;28;20445;-65
2022/03/21 09:58:20;;;;;;;26.37;23.50;;;17.70;64.10;;;;;;5073377;28;20431;-65
2022/03/21 10:00:47;;;;;;;29.77;23.53;;;18.00;61.50;;;;;;5073214;28;20892;-65
2022/03/21 10:03:14;;;;;;;29.50;26.47;;;18.20;58.60;;;;;;5073538;28;20513;-65
2022/03/21 10:05:43;;;;;;;27.30;24.50;;;18.30;58.50;;;;;;5073466;28;20479;-65
2022/03/21 10:08:15;;;;;;;28.77;24.70;;;18.70;58.90;;;;;;5073490;28;20506;-65
2022/03/21 10:10:52;;;;;;;27.03;22.97;;;18.90;57.00;;;;;;5073459;28;20834;-65
2022/03/21 10:13:19;;;;;;;27.00;22.30;;;19.30;56.60;;;;;;5073494;28;20437;-65
2022/03/21 10:15:46;;;;;;;26.20;23.43;;;19.60;55.70;;;;;;5073492;28;20452;-65
2022/03/21 10:18:13;;;;;;;27.13;24.13;;;20.00;54.80;;;;;;5073162;28;20452;-65
2022/03/21 10:20:41;;;;;;;28.87;25.70;;;20.40;54.10;;;;;;5073841;28;20537;-65
2022/03/21 10:23:19;;;;;;;25.33;22.87;;;20.70;53.30;;;;;;5073389;28;20456;-65
2022/03/21 10:25:47;;;;;;;24.10;21.60;;;21.10;51.40;;;;;;5073009;28;20995;-65
2022/03/21 10:28:32;;;;;;;28.07;24.73;;;21.50;50.80;;;;;;5073468;28;20452;-65
2022/03/21 10:30:59;;;;;;;24.50;22.00;;;22.00;50.00;;;;;;5073616;28;20467;-65
2022/03/21 10:33:26;;;;;;;25.77;23.33;;;22.40;49.00;;;;;;5073404;28;20432;-65
2022/03/21 10:35:56;;;;;;;24.37;22.00;;;22.80;47.40;;;;;;5075283;28;20425;-64
2022/03/21 10:38:30;;;;;;;25.47;23.10;;;23.30;45.80;;;;;;5077486;28;20440;-64
2022/03/21 10:40:57;;;;;;;26.77;23.97;;;23.70;44.80;;;;;;5077466;28;20475;-64
2022/03/21 10:43:25;;;;;;;26.73;24.07;;;24.20;44.20;;;;;;5077508;28;20453;-64
2022/03/21 10:45:54;;;;;;;28.43;25.63;;;24.60;41.40;;;;;;5077274;28;20479;-64
2022/03/21 10:48:23;;;;;;;24.27;21.93;;;24.90;39.50;;;;;;5077348;28;20443;-64
2022/03/21 10:50:51;;;;;;;23.77;21.37;;;25.10;38.00;;;;;;5077016;28;20483;-64
2022/03/21 10:53:24;;;;;;;25.23;22.80;;;25.50;38.60;;;;;;5077738;28;20456;-64
2022/03/21 10:55:59;;;;;;;25.27;22.77;;;26.00;38.30;;;;;;5077025;28;20440;-64
2022/03/21 10:58:33;;;;;;;24.97;22.00;;;26.50;36.90;;;;;;5077097;28;20795;-64
2022/03/21 11:01:10;;;;;;;26.90;24.30;;;27.10;36.00;;;;;;5077215;28;20476;-64
2022/03/21 11:03:40;;;;;;;24.10;21.80;;;27.60;34.50;;;;;;5077320;28;20433;-64
2022/03/21 11:06:08;;;;;;;23.10;20.60;;;28.00;33.70;;;;;;5076965;28;20476;-64
2022/03/21 11:08:36;;;;;;;26.67;23.97;;;28.50;33.40;;;;;;5076766;28;20440;-64
2022/03/21 11:11:04;;;;;;;25.27;23.10;;;28.90;32.10;;;;;;5076875;28;20511;-64
2022/03/21 11:13:31;;;;;;;24.83;22.23;;;29.20;31.20;;;;;;5076909;28;20452;-64
2022/03/21 11:15:58;;;;;;;24.87;21.80;;;29.50;30.40;;;;;;5076393;28;20544;-65
2022/03/21 11:18:27;;;;;;;26.40;23.90;;;29.80;30.40;;;;;;5076117;28;20474;-65
2022/03/21 11:20:54;;;;;;;26.30;23.13;;;30.10;30.10;;;;;;5076115;28;21013;-65
2022/03/21 11:23:21;;;;;;;26.07;23.70;;;30.40;29.70;;;;;;5076649;28;20455;-65
2022/03/21 11:25:52;;;;;;;25.50;23.30;;;30.60;29.50;;;;;;5076123;28;20484;-65
2022/03/21 11:28:57;;;;;;;24.77;22.50;;;30.80;26.80;;;;;;5076468;28;20436;-65
2022/03/21 11:31:56;;;;;;;22.10;19.90;;;30.90;27.50;;;;;;5076018;28;20490;-65
2022/03/21 11:34:36;;;;;;;24.30;22.10;;;31.20;27.90;;;;;;5072335;28;20444;-65
2022/03/21 11:37:03;;;;;;;23.10;20.97;;;31.50;27.30;;;;;;5076285;28;20451;-65
2022/03/21 11:39:30;;;;;;;26.73;24.10;;;31.90;27.20;;;;;;5076028;28;20454;-65
2022/03/21 11:42:00;;;;;;;22.50;20.53;;;32.20;27.10;;;;;;5075907;28;20470;-65
2022/03/21 11:44:28;;;;;;;22.30;20.40;;;32.60;25.90;;;;;;5076270;28;20927;-64
2022/03/21 11:47:14;;;;;;;26.37;23.97;;;32.90;25.80;;;;;;5075271;28;20448;-64
2022/03/21 11:49:45;;;;;;;25.20;23.10;;;33.20;24.40;;;;;;5075778;28;20448;-64
2022/03/21 11:52:12;;;;;;;22.83;20.70;;;33.40;24.20;;;;;;5075789;28;20962;-65
2022/03/21 11:54:39;;;;;;;26.53;23.97;;;33.60;25.10;;;;;;5075959;28;20448;-65
2022/03/21 11:57:08;;;;;;;23.47;21.47;;;34.00;25.10;;;;;;5075791;28;20817;-65
2022/03/21 12:00:15;;;;;;;22.30;20.30;;;34.30;24.30;;;;;;5075837;28;20448;-65
2022/03/21 12:02:58;;;;;;;24.10;22.00;;;34.70;23.60;;;;;;5075642;28;20429;-65
2022/03/21 12:05:38;;;;;;;25.10;23.00;;;35.10;23.50;;;;;;5075751;28;20210;-65
2022/03/21 12:08:33;;;;;;;25.23;22.87;;;35.30;22.50;;;;;;5075392;28;20695;-65
2022/03/21 12:10:59;;;;;;;24.80;22.60;;;35.50;22.90;;;;;;5048939;28;20275;-65
2022/03/21 12:13:41;;;;;;;21.13;19.23;;;35.70;21.80;;;;;;5075571;28;20205;-65
2022/03/21 12:16:18;;;;;;;23.63;21.73;;;35.80;22.00;;;;;;5075745;28;20198;-65
2022/03/21 12:19:04;;;;;;;24.17;22.07;;;36.00;21.90;;;;;;5075175;28;20676;-65
2022/03/21 12:21:31;;;;;;;21.77;19.65;;;36.30;21.70;;;;;;5075390;28;20226;-66
2022/03/21 12:24:12;;;;;;;19.92;18.20;;;36.40;21.50;;;;;;5075646;28;20198;-65
2022/03/21 12:26:47;;;;;;;22.83;20.90;;;36.70;21.30;;;;;;5075450;28;20201;-65
2022/03/21 12:29:36;;;;;;;20.23;18.35;;;36.90;21.00;;;;;;5075525;28;20186;-65
2022/03/21 12:32:26;;;;;;;19.17;17.58;;;37.10;20.80;;;;;;5075193;28;20313;-65
2022/03/21 12:34:54;;;;;;;18.27;16.48;;;37.30;20.80;;;;;;5075035;28;20224;-65
2022/03/21 12:37:41;;;;;;;19.83;17.92;;;37.40;21.10;;;;;;5075111;28;20600;-65
2022/03/21 12:40:11;;;;;;;20.42;18.48;;;37.70;20.60;;;;;;5075233;28;20178;-65
2022/03/21 12:42:44;;;;;;;19.77;18.17;;;37.90;20.10;;;;;;5075243;28;20218;-65
2022/03/21 12:45:19;;;;;;;18.30;16.70;;;38.10;20.20;;;;;;5074803;28;20210;-66
2022/03/21 12:47:46;;;;;;;20.33;18.63;;;38.30;19.50;;;;;;5074721;28;20565;-65
2022/03/21 12:50:20;;;;;;;20.23;18.58;;;38.30;19.70;;;;;;5074762;28;20229;-65
2022/03/21 12:52:53;;;;;;;18.23;16.73;;;38.50;19.60;;;;;;5074845;28;20194;-66
2022/03/21 12:55:20;;;;;;;18.83;17.25;;;38.50;18.70;;;;;;5074898;28;20210;-66
2022/03/21 12:57:55;;;;;;;17.58;16.27;;;38.60;19.20;;;;;;5074796;28;20209;-65